Drumbo, Canada
Current Conditions -  °F | °C
As of 10:00 AM on Friday 28 Nov 2014 (Local Time) from CYKF Reporting Station
Overcast Overcast  
Wind Chill: 11°   Ceiling: 3900
Heat Index: 23°   Visibility: 9mi
Dew Point: 16°   Wind: 13mph
Humidity: 74%   Direction: 280°W
Pressure: 30.23"   Gusts: 20mph
Location:  43.23°N, 80.55°W
Report Text: CYKF 281500Z AUTO 28011G17KT 9SM FEW025 OVC039 M05/M09 A3023 RMK SLP255
Loading
Personal Weather Stations






























Interactive Weather Map New forecast layout! Learn more

10-Day Weather Forecast

Advertisements
Track Severe Weather on mobile